Time;durP1;ratioP1;P1;durP2;ratioP2;P2;SDS_P1;SDS_P2;PMS_P1;PMS_P2;Temp;Humidity;BMP_temperature;BMP_pressure;BME280_temperature;BME280_humidity;BME280_pressure;Samples;Min_cycle;Max_cycle;Signal;HPM_P1;HPM_P2
2022/05/13 03:52:34;;;;;;;11.88;7.57;;;;;;;;;;778740;170;1021705;-65
2022/05/13 03:54:59;;;;;;;10.40;7.90;;;;;;;;;;757099;183;918249;-66
2022/05/13 03:57:25;;;;;;;12.70;7.63;;;;;;;;;;759896;183;921595;-65
2022/05/13 03:59:51;;;;;;;13.07;8.13;;;;;;;;;;757883;183;941630;-66
2022/05/13 04:02:17;;;;;;;10.00;7.80;;;;;;;;;;762649;183;918967;-66
2022/05/13 04:09:46;;;;;;;9.40;8.37;;;;;;;;;;757354;183;1021504;-66
2022/05/13 04:17:15;;;;;;;14.30;8.33;;;;;;;;;;759903;183;917753;-67
2022/05/13 04:19:40;;;;;;;12.10;9.10;;;;;;;;;;757696;183;1020734;-67
2022/05/13 04:22:06;;;;;;;11.23;9.00;;;;;;;;;;761669;183;939037;-66
2022/05/13 04:24:32;;;;;;;14.90;8.80;;;;;;;;;;756626;184;919394;-66
2022/05/13 04:26:58;;;;;;;10.90;8.20;;;;;;;;;;751821;183;914817;-67
2022/05/13 04:29:24;;;;;;;11.57;8.93;;;;;;;;;;757761;185;916104;-66
2022/05/13 04:31:50;;;;;;;14.90;9.70;;;;;;;;;;758349;183;918798;-66
2022/05/13 04:34:16;;;;;;;14.17;9.63;;;;;;;;;;756801;183;1021039;-66
2022/05/13 04:36:41;;;;;;;13.53;9.07;;;;;;;;;;762429;183;629833;-67
2022/05/13 04:39:07;;;;;;;12.10;8.87;;;;;;;;;;764143;184;624456;-71
2022/05/13 04:44:05;;;;;;;19.23;10.23;;;;;;;;;;757112;183;1021637;-67
2022/05/13 04:46:31;;;;;;;17.10;9.00;;;;;;;;;;757660;183;1022570;-66
2022/05/13 04:48:57;;;;;;;15.43;11.73;;;;;;;;;;761432;183;918546;-66
2022/05/13 04:51:22;;;;;;;19.77;10.70;;;;;;;;;;758144;184;919051;-66
2022/05/13 04:53:48;;;;;;;12.97;11.37;;;;;;;;;;756989;183;924307;-66
2022/05/13 04:56:14;;;;;;;13.63;10.53;;;;;;;;;;763199;183;917163;-67
2022/05/13 04:58:41;;;;;;;20.07;11.50;;;;;;;;;;755181;183;919397;-67
2022/05/13 05:01:06;;;;;;;15.10;11.57;;;;;;;;;;756070;183;918910;-67
2022/05/13 05:03:32;;;;;;;15.30;11.83;;;;;;;;;;765665;182;918635;-67
2022/05/13 05:05:57;;;;;;;14.60;11.20;;;;;;;;;;761282;183;919052;-66
2022/05/13 05:08:23;;;;;;;20.27;11.47;;;;;;;;;;758029;183;919934;-67
2022/05/13 05:10:50;;;;;;;12.98;10.70;;;;;;;;;;762063;183;956438;-65
2022/05/13 05:13:17;;;;;;;18.43;12.80;;;;;;;;;;772976;181;921042;-67
2022/05/13 05:15:45;;;;;;;13.13;10.73;;;;;;;;;;760814;183;930918;-67
2022/05/13 05:18:09;;;;;;;14.83;11.63;;;;;;;;;;760200;183;910991;-66
2022/05/13 05:20:36;;;;;;;17.50;9.90;;;;;;;;;;762690;183;916568;-67
2022/05/13 05:23:01;;;;;;;17.17;10.33;;;;;;;;;;755883;184;914513;-67
2022/05/13 05:25:29;;;;;;;13.53;11.17;;;;;;;;;;755745;183;919297;-67
2022/05/13 05:27:53;;;;;;;14.15;10.57;;;;;;;;;;763145;183;919661;-67
2022/05/13 05:30:18;;;;;;;15.90;10.80;;;;;;;;;;761135;184;914645;-67
2022/05/13 05:32:44;;;;;;;13.00;10.03;;;;;;;;;;758742;183;919258;-67
2022/05/13 05:35:10;;;;;;;12.80;9.70;;;;;;;;;;763220;183;627677;-67
2022/05/13 05:37:36;;;;;;;12.60;9.40;;;;;;;;;;761506;183;919624;-68
2022/05/13 05:40:02;;;;;;;15.02;10.32;;;;;;;;;;759250;183;1021338;-67
2022/05/13 05:42:28;;;;;;;11.43;9.83;;;;;;;;;;757331;183;919355;-68
2022/05/13 05:44:54;;;;;;;11.60;9.13;;;;;;;;;;761004;184;937384;-67
2022/05/13 05:47:21;;;;;;;14.37;10.30;;;;;;;;;;757209;183;919930;-68
2022/05/13 05:49:46;;;;;;;15.17;10.17;;;;;;;;;;757448;183;1021601;-68
2022/05/13 05:52:12;;;;;;;16.30;11.10;;;;;;;;;;762263;184;1060938;-68
2022/05/13 05:57:13;;;;;;;14.80;10.60;;;;;;;;;;756343;183;918876;-68
2022/05/13 05:59:39;;;;;;;13.10;10.20;;;;;;;;;;757111;183;919385;-68
2022/05/13 06:02:05;;;;;;;13.40;9.80;;;;;;;;;;762031;183;919608;-68
2022/05/13 06:04:31;;;;;;;13.43;10.33;;;;;;;;;;758316;183;919478;-68
2022/05/13 06:06:57;;;;;;;14.60;9.47;;;;;;;;;;756183;183;919449;-69
2022/05/13 06:09:22;;;;;;;15.37;10.57;;;;;;;;;;761440;184;918879;-69
2022/05/13 06:11:48;;;;;;;13.67;11.10;;;;;;;;;;755237;184;919560;-68
2022/05/13 06:14:15;;;;;;;12.43;9.97;;;;;;;;;;758876;182;918776;-68
2022/05/13 06:16:40;;;;;;;13.10;9.67;;;;;;;;;;758584;183;919677;-68
2022/05/13 06:19:06;;;;;;;13.20;9.43;;;;;;;;;;751941;185;918784;-69
2022/05/13 06:21:33;;;;;;;13.50;9.37;;;;;;;;;;759115;183;918663;-69
2022/05/13 06:23:57;;;;;;;11.37;8.50;;;;;;;;;;757978;183;967569;-69
2022/05/13 06:26:23;;;;;;;12.93;9.23;;;;;;;;;;763098;183;920204;-69
2022/05/13 06:28:50;;;;;;;14.30;8.80;;;;;;;;;;757841;183;919546;-69
2022/05/13 06:31:16;;;;;;;11.03;8.67;;;;;;;;;;761144;183;919053;-70
2022/05/13 06:33:41;;;;;;;10.33;8.97;;;;;;;;;;756700;184;919160;-68
2022/05/13 06:36:07;;;;;;;10.70;8.93;;;;;;;;;;754560;184;919199;-68
2022/05/13 06:38:33;;;;;;;10.33;8.43;;;;;;;;;;754158;184;1022655;-68
2022/05/13 06:40:59;;;;;;;8.93;6.63;;;;;;;;;;760641;183;919590;-68
2022/05/13 06:43:25;;;;;;;8.43;6.20;;;;;;;;;;769303;183;918981;-69
2022/05/13 06:45:51;;;;;;;10.53;7.10;;;;;;;;;;760015;183;960183;-68
2022/05/13 06:48:17;;;;;;;7.73;6.60;;;;;;;;;;756894;184;920696;-69
2022/05/13 06:50:43;;;;;;;8.73;7.27;;;;;;;;;;762882;183;918865;-68
2022/05/13 06:53:08;;;;;;;10.07;6.80;;;;;;;;;;756363;183;918863;-69
2022/05/13 06:55:34;;;;;;;9.00;7.27;;;;;;;;;;757441;183;919638;-69
2022/05/13 06:58:00;;;;;;;12.53;6.57;;;;;;;;;;763312;184;916482;-69
2022/05/13 07:00:26;;;;;;;8.87;6.77;;;;;;;;;;753142;183;916898;-69
2022/05/13 07:02:52;;;;;;;8.73;7.82;;;;;;;;;;756640;184;916082;-69
2022/05/13 07:05:20;;;;;;;10.30;6.27;;;;;;;;;;762563;183;917034;-69
2022/05/13 07:07:44;;;;;;;14.13;7.20;;;;;;;;;;757206;183;1017053;-69
2022/05/13 07:10:09;;;;;;;9.90;7.70;;;;;;;;;;761584;183;616500;-70
2022/05/13 07:12:36;;;;;;;13.73;7.73;;;;;;;;;;762308;183;614416;-69
2022/05/13 07:15:03;;;;;;;7.63;6.43;;;;;;;;;;765013;184;635025;-68
2022/05/13 07:17:27;;;;;;;7.90;6.60;;;;;;;;;;765668;183;918403;-71
2022/05/13 07:19:53;;;;;;;8.53;6.70;;;;;;;;;;756723;186;625121;-70
2022/05/13 07:22:19;;;;;;;11.33;7.67;;;;;;;;;;758735;183;919550;-70
2022/05/13 07:24:45;;;;;;;8.07;7.27;;;;;;;;;;761720;183;919499;-70
2022/05/13 07:27:10;;;;;;;8.52;7.32;;;;;;;;;;760348;183;1020772;-70
2022/05/13 07:29:36;;;;;;;9.30;7.60;;;;;;;;;;764839;183;919330;-70
2022/05/13 07:32:02;;;;;;;9.10;7.73;;;;;;;;;;758061;183;919651;-70
2022/05/13 07:34:28;;;;;;;15.00;9.00;;;;;;;;;;758721;183;919357;-70
2022/05/13 07:36:54;;;;;;;10.20;7.33;;;;;;;;;;757519;183;1021448;-70
2022/05/13 07:41:51;;;;;;;11.73;7.90;;;;;;;;;;736617;188;919576;-70
2022/05/13 07:44:17;;;;;;;9.27;7.90;;;;;;;;;;756172;183;992247;-71
2022/05/13 07:46:43;;;;;;;13.70;7.90;;;;;;;;;;763444;184;919317;-69
2022/05/13 07:49:09;;;;;;;8.40;6.70;;;;;;;;;;759975;183;918864;-71
2022/05/13 07:51:35;;;;;;;8.83;7.60;;;;;;;;;;758075;184;919401;-72
2022/05/13 07:54:01;;;;;;;9.80;7.95;;;;;;;;;;759420;183;921021;-69
2022/05/13 07:56:27;;;;;;;11.50;7.93;;;;;;;;;;766136;183;919165;-71
2022/05/13 07:58:53;;;;;;;11.63;7.50;;;;;;;;;;757293;184;919784;-70
2022/05/13 08:01:18;;;;;;;17.17;7.63;;;;;;;;;;755624;184;1021172;-71
2022/05/13 08:03:46;;;;;;;9.00;7.80;;;;;;;;;;762008;184;918622;-70
2022/05/13 08:06:12;;;;;;;14.80;9.13;;;;;;;;;;754373;184;919353;-71
2022/05/13 08:08:36;;;;;;;9.77;7.47;;;;;;;;;;756658;184;919610;-71
2022/05/13 08:11:02;;;;;;;9.57;7.83;;;;;;;;;;762974;184;919340;-71
2022/05/13 08:13:30;;;;;;;8.53;6.83;;;;;;;;;;760298;183;919191;-72
2022/05/13 08:15:53;;;;;;;12.07;6.73;;;;;;;;;;757746;183;919194;-71
2022/05/13 08:18:19;;;;;;;9.47;7.03;;;;;;;;;;765634;183;919451;-72
2022/05/13 08:20:45;;;;;;;14.13;8.00;;;;;;;;;;751814;183;919724;-70
2022/05/13 08:23:11;;;;;;;12.37;7.20;;;;;;;;;;755357;183;918799;-72
2022/05/13 08:25:37;;;;;;;10.07;8.13;;;;;;;;;;758257;183;918862;-71
2022/05/13 08:28:03;;;;;;;8.50;7.23;;;;;;;;;;761631;183;1023443;-72
2022/05/13 08:30:28;;;;;;;15.60;8.33;;;;;;;;;;757893;183;919098;-72
2022/05/13 08:32:54;;;;;;;10.17;7.00;;;;;;;;;;759759;183;919426;-71
2022/05/13 08:35:20;;;;;;;9.97;7.77;;;;;;;;;;761268;183;1059417;-71
2022/05/13 08:37:46;;;;;;;10.47;8.60;;;;;;;;;;754322;183;919361;-71
2022/05/13 08:40:13;;;;;;;13.35;7.43;;;;;;;;;;758679;183;919407;-72
2022/05/13 08:42:38;;;;;;;12.50;7.60;;;;;;;;;;763551;183;925129;-71
2022/05/13 08:45:05;;;;;;;8.43;7.20;;;;;;;;;;757573;183;918570;-72
2022/05/13 08:47:32;;;;;;;8.10;6.10;;;;;;;;;;757138;183;922165;-72
2022/05/13 08:50:02;;;;;;;9.53;5.60;;;;;;;;;;756501;183;1022118;-73
2022/05/13 08:55:15;;;;;;;8.10;6.53;;;;;;;;;;769501;183;919164;-74
2022/05/13 08:57:41;;;;;;;9.70;7.63;;;;;;;;;;760138;184;919216;-74
2022/05/13 09:00:08;;;;;;;7.37;6.40;;;;;;;;;;758383;183;919940;-74
2022/05/13 09:02:34;;;;;;;13.43;7.27;;;;;;;;;;758579;183;936529;-71
2022/05/13 09:05:01;;;;;;;9.43;7.40;;;;;;;;;;755281;184;924621;-75
2022/05/13 09:07:26;;;;;;;13.00;7.50;;;;;;;;;;757484;183;919151;-73
2022/05/13 09:09:52;;;;;;;9.70;6.80;;;;;;;;;;757073;183;1020384;-74
2022/05/13 09:12:18;;;;;;;11.90;6.10;;;;;;;;;;763563;183;919444;-74
2022/05/13 09:14:44;;;;;;;12.27;6.23;;;;;;;;;;759075;183;919595;-70
2022/05/13 09:17:13;;;;;;;16.33;7.62;;;;;;;;;;757478;183;918954;-74
2022/05/13 09:19:40;;;;;;;6.93;5.10;;;;;;;;;;762802;184;918256;-74
2022/05/13 09:22:06;;;;;;;8.60;6.10;;;;;;;;;;763283;184;918196;-73
2022/05/13 09:24:32;;;;;;;7.43;5.20;;;;;;;;;;757599;183;918651;-74
2022/05/13 09:26:58;;;;;;;7.87;5.37;;;;;;;;;;758284;183;919129;-74
2022/05/13 09:29:24;;;;;;;7.97;6.80;;;;;;;;;;762049;184;917946;-76
2022/05/13 09:32:04;;;;;;;13.50;6.07;;;;;;;;;;758164;183;919062;-74
2022/05/13 09:34:30;;;;;;;9.20;6.30;;;;;;;;;;749214;185;918893;-74
2022/05/13 09:37:16;;;;;;;6.00;4.87;;;;;;;;;;756461;184;919130;-73
2022/05/13 09:39:43;;;;;;;8.60;6.23;;;;;;;;;;751494;186;919083;-74
2022/05/13 09:42:23;;;;;;;6.70;5.30;;;;;;;;;;759699;184;919165;-74
2022/05/13 09:44:51;;;;;;;8.53;6.20;;;;;;;;;;765083;183;919134;-76
2022/05/13 09:47:15;;;;;;;8.90;5.97;;;;;;;;;;758930;183;919812;-75
2022/05/13 09:49:40;;;;;;;7.30;5.63;;;;;;;;;;758426;183;918644;-77
2022/05/13 09:52:07;;;;;;;10.50;6.20;;;;;;;;;;763424;183;919008;-74
2022/05/13 09:54:33;;;;;;;7.63;5.50;;;;;;;;;;768333;183;816542;-76
2022/05/13 09:57:05;;;;;;;8.10;6.30;;;;;;;;;;759075;183;919121;-74
2022/05/13 09:59:30;;;;;;;7.80;6.00;;;;;;;;;;759898;183;915860;-73
2022/05/13 10:01:56;;;;;;;7.63;5.43;;;;;;;;;;760454;183;917435;-76
2022/05/13 10:04:22;;;;;;;8.13;6.53;;;;;;;;;;758689;183;918178;-76
2022/05/13 10:06:48;;;;;;;7.67;6.40;;;;;;;;;;750253;186;1021273;-72
2022/05/13 10:14:23;;;;;;;6.40;5.33;;;;;;;;;;763194;183;918802;-73
2022/05/13 10:16:49;;;;;;;8.17;4.90;;;;;;;;;;758552;183;888183;-75
2022/05/13 10:19:16;;;;;;;7.80;5.10;;;;;;;;;;757347;183;918044;-75
2022/05/13 10:21:42;;;;;;;10.70;6.20;;;;;;;;;;756757;183;815675;-75
2022/05/13 10:24:09;;;;;;;8.43;4.57;;;;;;;;;;758247;184;919000;-75
2022/05/13 10:26:35;;;;;;;6.13;4.67;;;;;;;;;;749588;185;918205;-76
2022/05/13 10:29:04;;;;;;;6.00;4.87;;;;;;;;;;764411;185;817173;-75
2022/05/13 10:31:30;;;;;;;11.00;4.80;;;;;;;;;;760685;183;918302;-75
2022/05/13 10:33:59;;;;;;;7.40;4.80;;;;;;;;;;759983;183;919270;-74
2022/05/13 10:36:43;;;;;;;9.13;5.60;;;;;;;;;;765530;183;813899;-73
2022/05/13 10:39:09;;;;;;;7.90;5.80;;;;;;;;;;763020;183;817049;-76
2022/05/13 10:41:34;;;;;;;6.27;4.97;;;;;;;;;;766163;183;816638;-75
2022/05/13 10:44:00;;;;;;;10.90;5.87;;;;;;;;;;762885;183;918541;-76
2022/05/13 10:46:26;;;;;;;7.10;4.83;;;;;;;;;;756077;184;816317;-74
2022/05/13 10:48:52;;;;;;;9.23;5.63;;;;;;;;;;760779;183;918481;-75
2022/05/13 10:51:19;;;;;;;7.93;5.03;;;;;;;;;;753786;184;917987;-80
2022/05/13 10:53:49;;;;;;;7.50;5.67;;;;;;;;;;762017;184;919398;-73
2022/05/13 10:56:14;;;;;;;8.40;4.93;;;;;;;;;;750067;185;919447;-78
2022/05/13 10:58:50;;;;;;;9.50;5.30;;;;;;;;;;765722;185;624524;-73
2022/05/13 11:01:17;;;;;;;10.00;5.40;;;;;;;;;;762514;182;624453;-74
2022/05/13 11:03:43;;;;;;;8.80;4.80;;;;;;;;;;757485;183;625881;-78
2022/05/13 11:06:14;;;;;;;7.67;4.63;;;;;;;;;;759081;183;817028;-79
2022/05/13 11:08:44;;;;;;;6.87;3.40;;;;;;;;;;763587;183;919410;-77
2022/05/13 11:11:16;;;;;;;8.53;4.03;;;;;;;;;;761315;183;839584;-73
2022/05/13 11:13:43;;;;;;;8.70;3.50;;;;;;;;;;748445;184;916431;-74
2022/05/13 11:16:12;;;;;;;4.63;3.40;;;;;;;;;;760922;183;919006;-75
2022/05/13 11:18:38;;;;;;;4.73;3.10;;;;;;;;;;768250;183;918698;-73
2022/05/13 11:21:16;;;;;;;10.50;3.97;;;;;;;;;;760307;183;915338;-75
2022/05/13 11:23:43;;;;;;;6.17;3.20;;;;;;;;;;763543;184;919592;-73
2022/05/13 11:26:08;;;;;;;8.00;3.80;;;;;;;;;;761821;184;919689;-74
2022/05/13 11:28:34;;;;;;;5.20;3.33;;;;;;;;;;767594;184;919233;-76
2022/05/13 11:31:01;;;;;;;9.80;3.70;;;;;;;;;;757059;184;918675;-75
2022/05/13 11:33:26;;;;;;;10.50;3.97;;;;;;;;;;758010;183;937749;-75
2022/05/13 11:35:55;;;;;;;6.90;3.50;;;;;;;;;;758903;183;921197;-72
2022/05/13 11:38:21;;;;;;;8.00;3.40;;;;;;;;;;765091;183;920066;-75
2022/05/13 11:41:04;;;;;;;6.33;3.60;;;;;;;;;;758244;183;916497;-78
2022/05/13 11:43:53;;;;;;;6.50;3.90;;;;;;;;;;761504;183;815607;-75
2022/05/13 11:46:51;;;;;;;9.77;3.43;;;;;;;;;;755936;183;922586;-77
2022/05/13 11:49:34;;;;;;;6.00;4.00;;;;;;;;;;751337;185;912171;-78
2022/05/13 11:52:18;;;;;;;4.97;3.70;;;;;;;;;;766697;183;813364;-76
2022/05/13 11:54:44;;;;;;;5.53;3.30;;;;;;;;;;758079;183;912615;-77
2022/05/13 11:57:11;;;;;;;5.50;3.53;;;;;;;;;;757177;184;703885;-76
2022/05/13 11:59:41;;;;;;;6.00;3.47;;;;;;;;;;760036;184;625534;-80
2022/05/13 12:02:08;;;;;;;8.40;4.20;;;;;;;;;;750647;184;905685;-80
2022/05/13 12:04:34;;;;;;;8.10;3.50;;;;;;;;;;757609;185;619216;-78
2022/05/13 12:07:00;;;;;;;5.60;4.23;;;;;;;;;;761820;183;625642;-75
2022/05/13 12:09:40;;;;;;;5.70;3.57;;;;;;;;;;759217;183;620365;-79
2022/05/13 12:12:11;;;;;;;6.77;4.00;;;;;;;;;;755715;185;663765;-81
2022/05/13 12:14:44;;;;;;;8.30;3.60;;;;;;;;;;767211;182;664995;-76
2022/05/13 12:17:25;;;;;;;6.00;3.90;;;;;;;;;;767719;183;669657;-74
2022/05/13 12:19:58;;;;;;;6.47;4.60;;;;;;;;;;763311;183;634463;-82
2022/05/13 12:22:39;;;;;;;5.73;3.73;;;;;;;;;;763919;183;629087;-79
2022/05/13 12:25:05;;;;;;;8.30;3.60;;;;;;;;;;764316;183;697294;-80
2022/05/13 12:27:31;;;;;;;5.50;3.77;;;;;;;;;;762731;183;635996;-78
2022/05/13 12:29:59;;;;;;;4.20;3.35;;;;;;;;;;759991;183;962158;-76
2022/05/13 12:32:25;;;;;;;5.10;3.30;;;;;;;;;;765135;183;1140306;-78
2022/05/13 12:37:34;;;;;;;6.10;3.77;;;;;;;;;;758236;184;1010012;-72
2022/05/13 12:40:14;;;;;;;4.00;2.67;;;;;;;;;;762346;182;627058;-73
2022/05/13 12:42:42;;;;;;;4.80;3.33;;;;;;;;;;758199;184;714596;-77
2022/05/13 12:45:09;;;;;;;5.37;3.33;;;;;;;;;;767394;183;812615;-77
2022/05/13 12:47:40;;;;;;;5.00;3.20;;;;;;;;;;762083;183;900109;-78
2022/05/13 12:50:12;;;;;;;4.17;3.37;;;;;;;;;;766223;183;684157;-74
2022/05/13 12:52:38;;;;;;;7.20;2.83;;;;;;;;;;762466;183;719038;-74
2022/05/13 12:55:21;;;;;;;6.30;3.67;;;;;;;;;;764876;183;620254;-74
2022/05/13 12:57:47;;;;;;;3.97;2.90;;;;;;;;;;760608;184;618807;-78
2022/05/13 13:00:14;;;;;;;5.67;3.37;;;;;;;;;;758429;183;915562;-80
2022/05/13 13:02:40;;;;;;;9.03;4.00;;;;;;;;;;765131;183;919270;-76
2022/05/13 13:05:06;;;;;;;3.67;2.80;;;;;;;;;;758948;184;774998;-76
2022/05/13 13:07:32;;;;;;;4.47;3.60;;;;;;;;;;761304;184;612814;-81
2022/05/13 13:09:57;;;;;;;4.43;2.97;;;;;;;;;;763154;183;630162;-77
2022/05/13 13:12:26;;;;;;;5.40;2.60;;;;;;;;;;750676;185;668899;-80
2022/05/13 13:14:55;;;;;;;5.07;3.10;;;;;;;;;;764721;183;874150;-82
2022/05/13 13:17:25;;;;;;;6.53;3.33;;;;;;;;;;758606;183;624965;-78
2022/05/13 13:19:51;;;;;;;8.53;3.30;;;;;;;;;;763627;183;664606;-77
2022/05/13 13:22:16;;;;;;;4.80;2.93;;;;;;;;;;761962;183;631132;-77
2022/05/13 13:24:42;;;;;;;5.23;2.90;;;;;;;;;;767386;181;662655;-76
2022/05/13 13:27:08;;;;;;;6.80;2.87;;;;;;;;;;762152;183;638644;-80
2022/05/13 13:29:34;;;;;;;6.00;3.63;;;;;;;;;;758987;183;726514;-75
2022/05/13 13:32:00;;;;;;;5.90;3.30;;;;;;;;;;764753;183;806132;-78
2022/05/13 13:34:30;;;;;;;6.72;3.28;;;;;;;;;;758107;183;917606;-78
2022/05/13 13:36:55;;;;;;;4.70;3.33;;;;;;;;;;761943;183;915757;-78
2022/05/13 13:39:22;;;;;;;6.70;3.43;;;;;;;;;;758976;183;892157;-78
2022/05/13 13:41:47;;;;;;;3.83;3.10;;;;;;;;;;763644;183;624199;-76
2022/05/13 13:44:13;;;;;;;3.67;2.60;;;;;;;;;;761025;183;675487;-77
2022/05/13 13:46:41;;;;;;;5.93;3.00;;;;;;;;;;759838;184;672885;-78
2022/05/13 13:49:07;;;;;;;4.00;3.03;;;;;;;;;;768242;183;634440;-78
2022/05/13 13:51:33;;;;;;;6.10;3.50;;;;;;;;;;762862;183;729820;-74
2022/05/13 13:54:01;;;;;;;10.57;3.60;;;;;;;;;;758565;183;624125;-76
2022/05/13 13:56:27;;;;;;;9.33;3.10;;;;;;;;;;763456;183;819179;-79
2022/05/13 13:59:10;;;;;;;7.37;3.20;;;;;;;;;;761778;183;808250;-81
2022/05/13 14:01:36;;;;;;;7.80;3.37;;;;;;;;;;768844;183;685053;-79
2022/05/13 14:04:02;;;;;;;4.87;3.27;;;;;;;;;;763070;183;634516;-79
2022/05/13 14:06:28;;;;;;;6.95;3.22;;;;;;;;;;761090;183;918684;-81
2022/05/13 14:08:54;;;;;;;12.37;3.50;;;;;;;;;;766856;183;678621;-77
2022/05/13 14:11:19;;;;;;;4.33;3.20;;;;;;;;;;756770;184;630401;-78
2022/05/13 14:13:46;;;;;;;5.53;3.07;;;;;;;;;;760181;183;612796;-77
2022/05/13 14:16:26;;;;;;;5.53;3.23;;;;;;;;;;763995;183;656635;-80
2022/05/13 14:18:52;;;;;;;5.17;2.80;;;;;;;;;;762729;184;825261;-76
2022/05/13 14:21:27;;;;;;;6.07;2.90;;;;;;;;;;758687;184;816558;-76
2022/05/13 14:23:55;;;;;;;4.40;3.00;;;;;;;;;;757869;184;639566;-77
2022/05/13 14:26:21;;;;;;;7.83;3.47;;;;;;;;;;760310;183;627167;-79
2022/05/13 14:28:49;;;;;;;9.67;3.33;;;;;;;;;;761558;184;641950;-78
2022/05/13 14:31:13;;;;;;;5.20;2.90;;;;;;;;;;762132;183;634987;-79
2022/05/13 14:33:39;;;;;;;7.60;3.53;;;;;;;;;;750007;185;918007;-77
2022/05/13 14:36:05;;;;;;;4.50;3.70;;;;;;;;;;765286;183;638322;-76
2022/05/13 14:39:48;;;;;;;6.10;3.60;;;;;;;;;;766939;184;623375;-77
2022/05/13 14:41:02;;;;;;;6.60;3.67;;;;;;;;;;758690;183;771187;-76
2022/05/13 14:43:28;;;;;;;7.37;3.60;;;;;;;;;;763223;184;623523;-79
2022/05/13 14:46:09;;;;;;;4.87;2.87;;;;;;;;;;766609;183;625892;-77
2022/05/13 14:48:35;;;;;;;6.83;3.57;;;;;;;;;;767601;183;619686;-78
2022/05/13 14:51:02;;;;;;;6.00;3.93;;;;;;;;;;761447;183;903884;-76
2022/05/13 14:53:28;;;;;;;8.30;2.83;;;;;;;;;;759169;184;813005;-80
2022/05/13 14:55:55;;;;;;;8.63;3.40;;;;;;;;;;755284;183;920733;-75
2022/05/13 14:58:24;;;;;;;4.03;2.77;;;;;;;;;;756768;184;637863;-76
2022/05/13 15:00:50;;;;;;;7.77;3.53;;;;;;;;;;764433;184;624662;-74
2022/05/13 15:03:15;;;;;;;4.33;3.10;;;;;;;;;;765353;183;626480;-75
2022/05/13 15:05:42;;;;;;;4.70;2.93;;;;;;;;;;761595;184;619380;-76
2022/05/13 15:08:13;;;;;;;4.30;3.23;;;;;;;;;;763577;183;629979;-77
2022/05/13 15:10:39;;;;;;;7.23;3.23;;;;;;;;;;764095;183;619195;-73
2022/05/13 15:13:05;;;;;;;4.67;2.90;;;;;;;;;;761113;184;628473;-78
2022/05/13 15:15:31;;;;;;;7.43;3.70;;;;;;;;;;765895;183;629941;-78
2022/05/13 15:18:01;;;;;;;4.00;3.17;;;;;;;;;;756224;183;633400;-69
2022/05/13 15:20:26;;;;;;;6.30;3.30;;;;;;;;;;760758;183;620475;-74
2022/05/13 15:22:52;;;;;;;5.57;3.13;;;;;;;;;;764508;183;632193;-74
2022/05/13 15:25:20;;;;;;;5.57;3.23;;;;;;;;;;763488;183;638102;-73
2022/05/13 15:27:44;;;;;;;7.28;3.47;;;;;;;;;;757254;183;1461571;-76
2022/05/13 15:30:10;;;;;;;8.63;3.90;;;;;;;;;;762460;183;649801;-73
2022/05/13 15:32:36;;;;;;;9.73;3.97;;;;;;;;;;755826;184;659586;-74
2022/05/13 15:35:02;;;;;;;5.80;3.20;;;;;;;;;;765953;183;627831;-74
2022/05/13 15:37:27;;;;;;;4.53;3.27;;;;;;;;;;759458;183;634646;-75
2022/05/13 15:39:53;;;;;;;5.30;3.50;;;;;;;;;;756909;184;618603;-72
2022/05/13 15:42:19;;;;;;;5.90;3.23;;;;;;;;;;764701;183;623921;-74
2022/05/13 15:44:45;;;;;;;5.27;3.73;;;;;;;;;;764089;183;634536;-74
2022/05/13 15:47:16;;;;;;;4.07;3.10;;;;;;;;;;767121;183;628060;-67
2022/05/13 15:54:45;;;;;;;6.43;3.50;;;;;;;;;;765145;182;645636;-76
2022/05/13 15:57:11;;;;;;;5.43;3.60;;;;;;;;;;761741;183;628765;-75
2022/05/13 15:59:37;;;;;;;8.83;2.97;;;;;;;;;;758466;185;626540;-75
2022/05/13 16:02:03;;;;;;;4.20;3.20;;;;;;;;;;761487;183;623924;-75
2022/05/13 16:04:29;;;;;;;6.53;2.80;;;;;;;;;;764500;183;716970;-76
2022/05/13 16:06:55;;;;;;;6.13;3.40;;;;;;;;;;759044;183;629480;-74
2022/05/13 16:09:21;;;;;;;7.93;3.37;;;;;;;;;;760106;183;918821;-74
2022/05/13 16:11:47;;;;;;;8.53;3.60;;;;;;;;;;760238;183;918435;-74
2022/05/13 16:14:12;;;;;;;6.63;3.40;;;;;;;;;;769124;183;630495;-74
2022/05/13 16:16:40;;;;;;;4.03;3.37;;;;;;;;;;752478;185;623612;-75
2022/05/13 16:19:04;;;;;;;11.17;3.40;;;;;;;;;;759659;184;626361;-75
2022/05/13 16:21:30;;;;;;;4.80;3.62;;;;;;;;;;763265;183;620633;-76
2022/05/13 16:23:57;;;;;;;6.10;3.00;;;;;;;;;;752161;183;624493;-76
2022/05/13 16:26:23;;;;;;;6.27;4.23;;;;;;;;;;762971;183;618393;-76
2022/05/13 16:28:49;;;;;;;5.37;3.10;;;;;;;;;;755002;184;624910;-73
2022/05/13 16:31:14;;;;;;;4.40;3.43;;;;;;;;;;762102;183;919105;-77
2022/05/13 16:33:40;;;;;;;9.27;3.70;;;;;;;;;;758480;184;919247;-75
2022/05/13 16:36:06;;;;;;;5.73;3.30;;;;;;;;;;760788;183;631177;-72
2022/05/13 16:38:32;;;;;;;7.00;4.00;;;;;;;;;;766374;183;624005;-74
2022/05/13 16:40:58;;;;;;;5.13;3.00;;;;;;;;;;759889;184;855375;-74
2022/05/13 16:43:24;;;;;;;7.77;3.80;;;;;;;;;;762140;184;673694;-75
2022/05/13 16:45:49;;;;;;;8.73;5.30;;;;;;;;;;764920;183;617354;-74
2022/05/13 16:48:15;;;;;;;9.67;3.87;;;;;;;;;;761363;184;622109;-73
2022/05/13 16:50:43;;;;;;;4.90;3.23;;;;;;;;;;761161;183;647497;-74
2022/05/13 16:53:07;;;;;;;6.10;3.40;;;;;;;;;;759193;183;632319;-74
2022/05/13 16:55:33;;;;;;;5.40;3.20;;;;;;;;;;756942;183;631292;-75
2022/05/13 16:57:59;;;;;;;7.13;3.23;;;;;;;;;;763123;183;615871;-74
2022/05/13 17:00:24;;;;;;;8.60;3.40;;;;;;;;;;762585;183;637092;-73
2022/05/13 17:02:55;;;;;;;4.50;3.00;;;;;;;;;;765964;183;630347;-74
2022/05/13 17:05:18;;;;;;;6.47;2.97;;;;;;;;;;761330;183;703879;-72
2022/05/13 17:07:45;;;;;;;9.10;3.20;;;;;;;;;;758954;183;636006;-72
2022/05/13 17:17:44;;;;;;;5.67;4.00;;;;;;;;;;756203;183;1021828;-73
2022/05/13 17:20:10;;;;;;;15.90;8.90;;;;;;;;;;758255;183;919451;-74
2022/05/13 17:22:37;;;;;;;8.17;4.90;;;;;;;;;;760939;184;917557;-71
2022/05/13 17:25:02;;;;;;;9.60;7.07;;;;;;;;;;757599;183;897716;-73
2022/05/13 17:27:29;;;;;;;7.50;5.57;;;;;;;;;;761896;183;630218;-73
2022/05/13 17:29:54;;;;;;;6.87;3.30;;;;;;;;;;765625;183;630571;-73
2022/05/13 17:32:20;;;;;;;11.20;6.03;;;;;;;;;;762392;184;634085;-75
2022/05/13 17:34:46;;;;;;;9.13;4.43;;;;;;;;;;759759;183;918875;-71
2022/05/13 17:37:13;;;;;;;23.17;16.12;;;;;;;;;;763860;183;918375;-74
2022/05/13 17:39:39;;;;;;;12.33;9.53;;;;;;;;;;762072;183;619196;-73
2022/05/13 17:42:05;;;;;;;6.78;3.42;;;;;;;;;;761945;183;788569;-74
2022/05/13 17:44:33;;;;;;;7.50;5.67;;;;;;;;;;758357;185;635160;-73
2022/05/13 17:46:58;;;;;;;5.30;3.80;;;;;;;;;;761973;184;613139;-72
2022/05/13 17:49:23;;;;;;;7.90;6.00;;;;;;;;;;754460;184;630265;-74
2022/05/13 17:51:49;;;;;;;35.83;11.20;;;;;;;;;;757935;184;638937;-73
2022/05/13 17:54:15;;;;;;;41.70;13.70;;;;;;;;;;765711;184;619198;-72
2022/05/13 17:56:41;;;;;;;12.50;5.33;;;;;;;;;;758454;184;631706;-73
2022/05/13 17:59:07;;;;;;;7.50;3.97;;;;;;;;;;757799;185;663285;-73
2022/05/13 18:01:33;;;;;;;6.83;3.27;;;;;;;;;;754799;185;627036;-70
2022/05/13 18:03:59;;;;;;;5.50;3.60;;;;;;;;;;772236;183;623547;-71
2022/05/13 18:06:24;;;;;;;9.33;2.67;;;;;;;;;;765117;183;625272;-74
2022/05/13 18:08:50;;;;;;;6.90;2.70;;;;;;;;;;762822;183;645039;-72
2022/05/13 18:11:17;;;;;;;10.30;3.37;;;;;;;;;;771340;181;635539;-71
2022/05/13 18:13:42;;;;;;;5.30;3.50;;;;;;;;;;769385;183;633388;-72
2022/05/13 18:16:08;;;;;;;5.97;2.80;;;;;;;;;;754227;186;617242;-72
2022/05/13 18:18:34;;;;;;;3.87;2.80;;;;;;;;;;763221;184;627426;-72
2022/05/13 18:21:00;;;;;;;11.17;3.00;;;;;;;;;;762660;184;633402;-71
2022/05/13 18:23:26;;;;;;;3.77;2.77;;;;;;;;;;760386;183;917995;-72
2022/05/13 18:25:51;;;;;;;9.03;2.90;;;;;;;;;;763377;183;914690;-71
2022/05/13 18:28:17;;;;;;;8.43;2.93;;;;;;;;;;754991;184;918339;-71
2022/05/13 18:30:43;;;;;;;4.93;2.80;;;;;;;;;;758653;184;918404;-71
2022/05/13 18:33:09;;;;;;;10.90;3.37;;;;;;;;;;756503;183;932551;-71
2022/05/13 18:35:35;;;;;;;5.47;2.53;;;;;;;;;;757944;184;920571;-71
2022/05/13 18:38:01;;;;;;;4.63;3.67;;;;;;;;;;760576;184;921517;-72
2022/05/13 18:48:02;;;;;;;7.20;2.43;;;;;;;;;;755649;183;918438;-71
2022/05/13 18:50:29;;;;;;;5.40;2.83;;;;;;;;;;757320;184;919844;-70
2022/05/13 18:52:56;;;;;;;6.70;3.35;;;;;;;;;;763360;183;917187;-70
2022/05/13 18:55:22;;;;;;;4.70;2.70;;;;;;;;;;762772;183;927464;-70
2022/05/13 18:57:48;;;;;;;4.17;2.87;;;;;;;;;;757656;183;923672;-70
2022/05/13 19:00:14;;;;;;;4.60;3.20;;;;;;;;;;760125;183;920401;-70
2022/05/13 19:02:40;;;;;;;18.63;3.60;;;;;;;;;;762762;183;918336;-70